Osg Courageous — WDF7122 — position and weather

sailwx.info

Track history (hours):
 
Tides and Currents Weather Stations Pressure Air Temp Water Temp Dewpoint Dewpoint Depression Visibility Wind Speed Wind Dir Waves Ship Positions

Osg Courageous

More information available from US FCC via Universal Licensing System and Coast Guard Vessel Documentation Center.

Last reported at 2014-Sep-03 06:30 UTC. Time now 2014-Sep-03 07:22 UTC.
Position N 30°03' W 090°36'.

Length 187 m; draft 7 m.

Type: Tanker. MMSI: 367481310.

Date/timePositionNaut miles runAvg speedWind from/ knotsBaromVisibWave heightAir tempDewpointWater temp
2014-Sep-03 06:30N 30°03' W 090°36'0 0.0
2014-Sep-03 05:33N 30°03' W 090°36'0 0.0
2014-Sep-03 04:30N 30°03' W 090°36'0 0.0
2014-Sep-03 03:33N 30°03' W 090°36'0 0.0
2014-Sep-03 02:30N 30°03' W 090°36'0 0.0
2014-Sep-03 01:33N 30°03' W 090°36'0 0.0
2014-Sep-03 00:33N 30°03' W 090°36'0 0.0
2014-Sep-02 23:33N 30°03' W 090°36'0 0.0
2014-Sep-02 22:33N 30°03' W 090°36'2 1.6
2014-Sep-02 21:33N 30°03' W 090°34'  
2014-Aug-31 16:33N 27°36' W 082°54'1111.4
2014-Aug-31 15:33N 27°37' W 082°41'1211.6
2014-Aug-31 14:33N 27°45' W 082°32'12 0.5
2014-Aug-30 12:32N 27°56' W 082°27'7 7.3
2014-Aug-30 11:32N 27°48' W 082°27'8 8.7
2014-Aug-30 10:33N 27°42' W 082°33'9 9.2
2014-Aug-30 09:33N 27°37' W 082°42'10 9.7
2014-Aug-30 08:33N 27°36' W 082°53'6 5.6
2014-Aug-30 07:31N 27°38' W 082°59'0 0.0
2014-Aug-30 06:33N 27°38' W 082°59'0 0.0
2014-Aug-30 05:33N 27°38' W 082°59'0 0.0
2014-Aug-30 04:33N 27°38' W 082°59'0 0.0
2014-Aug-30 03:33N 27°38' W 082°59'0 0.0
2014-Aug-30 02:29N 27°38' W 082°59'0 0.1
2014-Aug-30 01:33N 27°38' W 082°59'0 0.0
2014-Aug-30 00:27N 27°38' W 082°59'0 0.0
2014-Aug-29 23:33N 27°38' W 082°59'0 0.0
2014-Aug-29 22:33N 27°38' W 082°59'0 0.0
2014-Aug-29 21:32N 27°38' W 082°59'0 0.0
2014-Aug-29 20:32N 27°38' W 082°59'0 0.0
2014-Aug-29 19:33N 27°38' W 082°59'0 0.0
2014-Aug-29 18:34N 27°38' W 082°59'0 0.0
2014-Aug-29 17:33N 27°38' W 082°59'0 0.0
2014-Aug-29 16:33N 27°38' W 082°59'0 0.0
2014-Aug-29 15:33N 27°38' W 082°59'0 0.0
2014-Aug-29 14:33N 27°38' W 082°59'0 0.0
2014-Aug-29 13:31N 27°38' W 082°59'0 0.0
2014-Aug-29 12:33N 27°38' W 082°59'0 0.0
2014-Aug-29 11:33N 27°38' W 082°59'0 0.0
2014-Aug-29 10:33N 27°38' W 082°59'0 0.0
2014-Aug-29 09:33N 27°38' W 082°59'0 0.0
2014-Aug-29 08:33N 27°38' W 082°59'0 0.0
2014-Aug-29 07:33N 27°38' W 082°59'0 0.0
2014-Aug-29 06:33N 27°38' W 082°59'0 0.0
2014-Aug-29 05:33N 27°38' W 082°59'0 0.0
2014-Aug-29 04:33N 27°38' W 082°59'0 0.0
2014-Aug-29 03:33N 27°38' W 082°59'0 0.0
2014-Aug-29 02:32N 27°38' W 082°59'0 0.0
2014-Aug-29 01:18N 27°38' W 082°59'0 0.1
2014-Aug-29 00:33N 27°38' W 082°59'0 0.0
2014-Aug-28 23:26N 27°38' W 082°59'0 0.1
2014-Aug-28 22:33N 27°38' W 082°59'0 0.0
2014-Aug-28 21:33N 27°38' W 082°59'0 0.1
2014-Aug-28 20:33N 27°38' W 082°59'0 0.0
2014-Aug-28 19:33N 27°38' W 082°59'0 0.0
2014-Aug-28 18:33N 27°38' W 082°59'0 0.0
2014-Aug-28 17:33N 27°38' W 082°59'0 0.0
2014-Aug-28 16:33N 27°38' W 082°59'0 0.0
2014-Aug-28 15:33N 27°38' W 082°59'0 0.0
2014-Aug-28 14:33N 27°38' W 082°59'0 0.0
2014-Aug-28 13:33N 27°38' W 082°59'0 0.0
2014-Aug-28 12:33N 27°38' W 082°59'0 0.0
2014-Aug-28 11:33N 27°38' W 082°59'0 0.0
2014-Aug-28 10:33N 27°38' W 082°59'0 0.0
2014-Aug-28 09:33N 27°38' W 082°59'0 0.0
2014-Aug-28 08:33N 27°38' W 082°59'0 0.0
2014-Aug-28 07:27N 27°38' W 082°59'0 0.0
2014-Aug-28 06:33N 27°38' W 082°59'0 0.0
2014-Aug-28 05:33N 27°38' W 082°59'0 0.0
2014-Aug-28 04:33N 27°38' W 082°59'0 0.1
2014-Aug-28 03:30N 27°38' W 082°59'0 0.1
2014-Aug-28 02:31N 27°38' W 082°59'0 0.0
2014-Aug-28 01:33N 27°38' W 082°59'0 0.0
2014-Aug-28 00:33N 27°38' W 082°59'6 6.1
2014-Aug-27 23:34N 27°38' W 083°06'420 9.1
2014-Aug-26 01:33N 30°03' W 090°35'0 0.1
2014-Aug-26 00:33N 30°03' W 090°35'0 0.0
2014-Aug-25 13:13N 30°03' W 090°35'0 0.0
2014-Aug-25 12:31N 30°03' W 090°35'0 0.0
2014-Aug-25 11:31N 30°03' W 090°35'0 0.0
2014-Aug-25 10:31N 30°03' W 090°35'0 0.0
2014-Aug-25 09:31N 30°03' W 090°35'0 0.0
2014-Aug-25 08:31N 30°03' W 090°35'0 0.0
2014-Aug-25 07:28N 30°03' W 090°35'0 0.0
2014-Aug-25 06:31N 30°03' W 090°35'0 0.0
2014-Aug-25 05:19N 30°03' W 090°35'0 0.0
2014-Aug-25 04:31N 30°03' W 090°35'0 0.0
2014-Aug-25 03:34N 30°03' W 090°35'0 0.0
2014-Aug-25 02:31N 30°03' W 090°35'0 0.0
2014-Aug-25 01:31N 30°03' W 090°35'0 0.0
2014-Aug-25 00:31N 30°03' W 090°35'0 0.0
2014-Aug-24 23:31N 30°03' W 090°35'0 0.0
2014-Aug-24 22:31N 30°03' W 090°35'0 0.0
2014-Aug-24 21:33N 30°03' W 090°35'0 0.0
2014-Aug-24 20:28N 30°03' W 090°35'0 0.0
2014-Aug-24 19:31N 30°03' W 090°35'0 0.0
2014-Aug-24 18:30N 30°03' W 090°35'0 0.0
2014-Aug-24 17:31N 30°03' W 090°35'0 0.0
2014-Aug-24 16:33N 30°03' W 090°35'6 6.0
2014-Aug-24 15:32N 30°02' W 090°28'8 7.7
2014-Aug-24 14:33N 29°57' W 090°23'  
Track history (hours):
 
Tides and Currents Weather Stations Pressure Air Temp Water Temp Dewpoint Dewpoint Depression Visibility Wind Speed Wind Dir Waves Ship Positions

Osg Courageous

More information available from US FCC via Universal Licensing System and Coast Guard Vessel Documentation Center.

Last reported at 2014-Sep-03 06:30 UTC. Time now 2014-Sep-03 07:22 UTC.
Position N 30°03' W 090°36'.

Length 187 m; draft 7 m.

Type: Tanker. MMSI: 367481310.

Date/timePositionNaut miles runAvg speedWind from/ knotsBaromVisibWave heightAir tempDewpointWater temp
2014-Sep-03 06:30N 30°03' W 090°36'0 0.0
2014-Sep-03 05:33N 30°03' W 090°36'0 0.0
2014-Sep-03 04:30N 30°03' W 090°36'0 0.0
2014-Sep-03 03:33N 30°03' W 090°36'0 0.0
2014-Sep-03 02:30N 30°03' W 090°36'0 0.0
2014-Sep-03 01:33N 30°03' W 090°36'0 0.0
2014-Sep-03 00:33N 30°03' W 090°36'0 0.0
2014-Sep-02 23:33N 30°03' W 090°36'0 0.0
2014-Sep-02 22:33N 30°03' W 090°36'2 1.6
2014-Sep-02 21:33N 30°03' W 090°34'  
2014-Aug-31 16:33N 27°36' W 082°54'1111.4
2014-Aug-31 15:33N 27°37' W 082°41'1211.6
2014-Aug-31 14:33N 27°45' W 082°32'12 0.5
2014-Aug-30 12:32N 27°56' W 082°27'7 7.3
2014-Aug-30 11:32N 27°48' W 082°27'8 8.7
2014-Aug-30 10:33N 27°42' W 082°33'9 9.2
2014-Aug-30 09:33N 27°37' W 082°42'10 9.7
2014-Aug-30 08:33N 27°36' W 082°53'6 5.6
2014-Aug-30 07:31N 27°38' W 082°59'0 0.0
2014-Aug-30 06:33N 27°38' W 082°59'0 0.0
2014-Aug-30 05:33N 27°38' W 082°59'0 0.0
2014-Aug-30 04:33N 27°38' W 082°59'0 0.0
2014-Aug-30 03:33N 27°38' W 082°59'0 0.0
2014-Aug-30 02:29N 27°38' W 082°59'0 0.1
2014-Aug-30 01:33N 27°38' W 082°59'0 0.0
2014-Aug-30 00:27N 27°38' W 082°59'0 0.0
2014-Aug-29 23:33N 27°38' W 082°59'0 0.0
2014-Aug-29 22:33N 27°38' W 082°59'0 0.0
2014-Aug-29 21:32N 27°38' W 082°59'0 0.0
2014-Aug-29 20:32N 27°38' W 082°59'0 0.0
2014-Aug-29 19:33N 27°38' W 082°59'0 0.0
2014-Aug-29 18:34N 27°38' W 082°59'0 0.0
2014-Aug-29 17:33N 27°38' W 082°59'0 0.0
2014-Aug-29 16:33N 27°38' W 082°59'0 0.0
2014-Aug-29 15:33N 27°38' W 082°59'0 0.0
2014-Aug-29 14:33N 27°38' W 082°59'0 0.0
2014-Aug-29 13:31N 27°38' W 082°59'0 0.0
2014-Aug-29 12:33N 27°38' W 082°59'0 0.0
2014-Aug-29 11:33N 27°38' W 082°59'0 0.0
2014-Aug-29 10:33N 27°38' W 082°59'0 0.0
2014-Aug-29 09:33N 27°38' W 082°59'0 0.0
2014-Aug-29 08:33N 27°38' W 082°59'0 0.0
2014-Aug-29 07:33N 27°38' W 082°59'0 0.0
2014-Aug-29 06:33N 27°38' W 082°59'0 0.0
2014-Aug-29 05:33N 27°38' W 082°59'0 0.0
2014-Aug-29 04:33N 27°38' W 082°59'0 0.0
2014-Aug-29 03:33N 27°38' W 082°59'0 0.0
2014-Aug-29 02:32N 27°38' W 082°59'0 0.0
2014-Aug-29 01:18N 27°38' W 082°59'0 0.1
2014-Aug-29 00:33N 27°38' W 082°59'0 0.0
2014-Aug-28 23:26N 27°38' W 082°59'0 0.1
2014-Aug-28 22:33N 27°38' W 082°59'0 0.0
2014-Aug-28 21:33N 27°38' W 082°59'0 0.1
2014-Aug-28 20:33N 27°38' W 082°59'0 0.0
2014-Aug-28 19:33N 27°38' W 082°59'0 0.0
2014-Aug-28 18:33N 27°38' W 082°59'0 0.0
2014-Aug-28 17:33N 27°38' W 082°59'0 0.0
2014-Aug-28 16:33N 27°38' W 082°59'0 0.0
2014-Aug-28 15:33N 27°38' W 082°59'0 0.0
2014-Aug-28 14:33N 27°38' W 082°59'0 0.0
2014-Aug-28 13:33N 27°38' W 082°59'0 0.0
2014-Aug-28 12:33N 27°38' W 082°59'0 0.0
2014-Aug-28 11:33N 27°38' W 082°59'0 0.0
2014-Aug-28 10:33N 27°38' W 082°59'0 0.0
2014-Aug-28 09:33N 27°38' W 082°59'0 0.0
2014-Aug-28 08:33N 27°38' W 082°59'0 0.0
2014-Aug-28 07:27N 27°38' W 082°59'0 0.0
2014-Aug-28 06:33N 27°38' W 082°59'0 0.0
2014-Aug-28 05:33N 27°38' W 082°59'0 0.0
2014-Aug-28 04:33N 27°38' W 082°59'0 0.1
2014-Aug-28 03:30N 27°38' W 082°59'0 0.1
2014-Aug-28 02:31N 27°38' W 082°59'0 0.0
2014-Aug-28 01:33N 27°38' W 082°59'0 0.0
2014-Aug-28 00:33N 27°38' W 082°59'6 6.1
2014-Aug-27 23:34N 27°38' W 083°06'420 9.1
2014-Aug-26 01:33N 30°03' W 090°35'0 0.1
2014-Aug-26 00:33N 30°03' W 090°35'0 0.0
2014-Aug-25 13:13N 30°03' W 090°35'0 0.0
2014-Aug-25 12:31N 30°03' W 090°35'0 0.0
2014-Aug-25 11:31N 30°03' W 090°35'0 0.0
2014-Aug-25 10:31N 30°03' W 090°35'0 0.0
2014-Aug-25 09:31N 30°03' W 090°35'0 0.0
2014-Aug-25 08:31N 30°03' W 090°35'0 0.0
2014-Aug-25 07:28N 30°03' W 090°35'0 0.0
2014-Aug-25 06:31N 30°03' W 090°35'0 0.0
2014-Aug-25 05:19N 30°03' W 090°35'0 0.0
2014-Aug-25 04:31N 30°03' W 090°35'0 0.0
2014-Aug-25 03:34N 30°03' W 090°35'0 0.0
2014-Aug-25 02:31N 30°03' W 090°35'0 0.0
2014-Aug-25 01:31N 30°03' W 090°35'0 0.0
2014-Aug-25 00:31N 30°03' W 090°35'0 0.0
2014-Aug-24 23:31N 30°03' W 090°35'0 0.0
2014-Aug-24 22:31N 30°03' W 090°35'0 0.0
2014-Aug-24 21:33N 30°03' W 090°35'0 0.0
2014-Aug-24 20:28N 30°03' W 090°35'0 0.0
2014-Aug-24 19:31N 30°03' W 090°35'0 0.0
2014-Aug-24 18:30N 30°03' W 090°35'0 0.0
2014-Aug-24 17:31N 30°03' W 090°35'0 0.0
2014-Aug-24 16:33N 30°03' W 090°35'6 6.0
2014-Aug-24 15:32N 30°02' W 090°28'8 7.7
2014-Aug-24 14:33N 29°57' W 090°23'  

Dump ship's entire track history